sensor_id;sensor_type;location;lat;lon;timestamp;P1;durP1;ratioP1;P2;durP2;ratioP2
19836;SDS011;10079;55.740;37.662;2023-02-28T00:00:28;9.47;;;4.93;;
19836;SDS011;10079;55.740;37.662;2023-02-28T00:24:12;9.30;;;5.17;;
19836;SDS011;10079;55.740;37.662;2023-02-28T00:26:56;7.73;;;4.67;;
19836;SDS011;10079;55.740;37.662;2023-02-28T00:29:38;9.03;;;4.77;;
19836;SDS011;10079;55.740;37.662;2023-02-28T00:32:20;7.07;;;4.30;;
19836;SDS011;10079;55.740;37.662;2023-02-28T00:35:01;9.50;;;4.83;;
19836;SDS011;10079;55.740;37.662;2023-02-28T00:37:42;8.30;;;4.37;;
19836;SDS011;10079;55.740;37.662;2023-02-28T00:40:23;8.43;;;4.83;;
19836;SDS011;10079;55.740;37.662;2023-02-28T00:43:08;7.60;;;4.63;;
19836;SDS011;10079;55.740;37.662;2023-02-28T00:45:49;8.27;;;5.17;;
19836;SDS011;10079;55.740;37.662;2023-02-28T00:48:30;8.37;;;4.70;;
19836;SDS011;10079;55.740;37.662;2023-02-28T00:51:11;7.57;;;4.97;;
19836;SDS011;10079;55.740;37.662;2023-02-28T00:53:55;9.60;;;5.53;;
19836;SDS011;10079;55.740;37.662;2023-02-28T00:56:36;8.07;;;4.43;;
19836;SDS011;10079;55.740;37.662;2023-02-28T00:59:29;9.30;;;4.73;;
19836;SDS011;10079;55.740;37.662;2023-02-28T01:02:18;8.20;;;4.63;;
19836;SDS011;10079;55.740;37.662;2023-02-28T01:04:59;10.57;;;4.60;;
19836;SDS011;10079;55.740;37.662;2023-02-28T01:07:43;10.60;;;4.97;;
19836;SDS011;10079;55.740;37.662;2023-02-28T01:10:24;8.33;;;4.90;;
19836;SDS011;10079;55.740;37.662;2023-02-28T01:13:05;8.87;;;4.50;;
19836;SDS011;10079;55.740;37.662;2023-02-28T01:15:50;8.93;;;5.07;;
19836;SDS011;10079;55.740;37.662;2023-02-28T01:18:30;7.03;;;4.03;;
19836;SDS011;10079;55.740;37.662;2023-02-28T01:31:53;7.40;;;4.50;;
19836;SDS011;10079;55.740;37.662;2023-02-28T01:34:46;10.17;;;4.67;;
19836;SDS011;10079;55.740;37.662;2023-02-28T01:37:36;8.13;;;4.17;;
19836;SDS011;10079;55.740;37.662;2023-02-28T01:40:17;7.53;;;4.57;;
19836;SDS011;10079;55.740;37.662;2023-02-28T01:43:01;7.80;;;4.47;;
19836;SDS011;10079;55.740;37.662;2023-02-28T01:45:42;9.13;;;4.97;;
19836;SDS011;10079;55.740;37.662;2023-02-28T01:48:35;8.93;;;5.17;;
19836;SDS011;10079;55.740;37.662;2023-02-28T01:51:22;9.13;;;4.87;;
19836;SDS011;10079;55.740;37.662;2023-02-28T01:54:09;9.67;;;4.83;;
19836;SDS011;10079;55.740;37.662;2023-02-28T01:56:48;9.20;;;4.30;;
19836;SDS011;10079;55.740;37.662;2023-02-28T01:59:30;9.37;;;4.80;;
19836;SDS011;10079;55.740;37.662;2023-02-28T02:02:14;7.57;;;4.47;;
19836;SDS011;10079;55.740;37.662;2023-02-28T02:05:08;8.60;;;4.80;;
19836;SDS011;10079;55.740;37.662;2023-02-28T02:07:58;8.20;;;4.60;;
19836;SDS011;10079;55.740;37.662;2023-02-28T02:10:42;7.57;;;4.67;;
19836;SDS011;10079;55.740;37.662;2023-02-28T02:13:36;8.87;;;4.50;;
19836;SDS011;10079;55.740;37.662;2023-02-28T02:16:30;10.00;;;4.67;;
19836;SDS011;10079;55.740;37.662;2023-02-28T02:33:06;10.87;;;5.13;;
19836;SDS011;10079;55.740;37.662;2023-02-28T02:35:56;11.23;;;5.53;;
19836;SDS011;10079;55.740;37.662;2023-02-28T02:38:47;9.00;;;5.27;;
19836;SDS011;10079;55.740;37.662;2023-02-28T02:41:35;9.83;;;5.57;;
19836;SDS011;10079;55.740;37.662;2023-02-28T02:44:20;10.40;;;5.10;;
19836;SDS011;10079;55.740;37.662;2023-02-28T02:47:01;9.83;;;5.00;;
19836;SDS011;10079;55.740;37.662;2023-02-28T02:49:45;10.50;;;5.33;;
19836;SDS011;10079;55.740;37.662;2023-02-28T03:03:11;8.80;;;5.27;;
19836;SDS011;10079;55.740;37.662;2023-02-28T03:06:04;9.33;;;5.07;;
19836;SDS011;10079;55.740;37.662;2023-02-28T03:08:45;9.90;;;5.30;;
19836;SDS011;10079;55.740;37.662;2023-02-28T03:11:26;9.90;;;5.03;;
19836;SDS011;10079;55.740;37.662;2023-02-28T03:23:13;8.10;;;4.40;;
19836;SDS011;10079;55.740;37.662;2023-02-28T03:25:54;8.90;;;4.43;;
19836;SDS011;10079;55.740;37.662;2023-02-28T03:28:42;8.47;;;4.43;;
19836;SDS011;10079;55.740;37.662;2023-02-28T03:31:28;8.17;;;4.97;;
19836;SDS011;10079;55.740;37.662;2023-02-28T03:34:16;8.77;;;4.13;;
19836;SDS011;10079;55.740;37.662;2023-02-28T03:36:59;10.43;;;4.83;;
19836;SDS011;10079;55.740;37.662;2023-02-28T03:39:41;6.63;;;3.83;;
19836;SDS011;10079;55.740;37.662;2023-02-28T03:42:21;6.13;;;3.10;;
19836;SDS011;10079;55.740;37.662;2023-02-28T03:45:04;6.93;;;3.73;;
19836;SDS011;10079;55.740;37.662;2023-02-28T03:47:47;7.67;;;4.03;;
19836;SDS011;10079;55.740;37.662;2023-02-28T03:50:34;6.30;;;3.60;;
19836;SDS011;10079;55.740;37.662;2023-02-28T03:53:19;6.10;;;3.73;;
19836;SDS011;10079;55.740;37.662;2023-02-28T03:56:09;8.67;;;3.80;;
19836;SDS011;10079;55.740;37.662;2023-02-28T03:58:57;7.57;;;3.70;;
19836;SDS011;10079;55.740;37.662;2023-02-28T04:12:10;8.83;;;4.57;;
19836;SDS011;10079;55.740;37.662;2023-02-28T04:15:03;6.30;;;3.90;;
19836;SDS011;10079;55.740;37.662;2023-02-28T04:17:48;5.43;;;3.80;;
19836;SDS011;10079;55.740;37.662;2023-02-28T04:20:29;15.43;;;5.90;;
19836;SDS011;10079;55.740;37.662;2023-02-28T04:23:18;7.70;;;3.70;;
19836;SDS011;10079;55.740;37.662;2023-02-28T04:26:05;8.60;;;4.23;;
19836;SDS011;10079;55.740;37.662;2023-02-28T04:28:58;6.80;;;4.30;;
19836;SDS011;10079;55.740;37.662;2023-02-28T04:31:39;6.43;;;3.73;;
19836;SDS011;10079;55.740;37.662;2023-02-28T04:34:23;7.73;;;4.70;;
19836;SDS011;10079;55.740;37.662;2023-02-28T04:37:07;7.83;;;4.33;;
19836;SDS011;10079;55.740;37.662;2023-02-28T04:39:48;9.87;;;4.20;;
19836;SDS011;10079;55.740;37.662;2023-02-28T04:42:40;8.03;;;3.97;;
19836;SDS011;10079;55.740;37.662;2023-02-28T04:45:33;7.23;;;4.00;;
19836;SDS011;10079;55.740;37.662;2023-02-28T04:48:17;5.33;;;3.40;;
19836;SDS011;10079;55.740;37.662;2023-02-28T05:01:45;7.87;;;3.53;;
19836;SDS011;10079;55.740;37.662;2023-02-28T05:25:44;6.00;;;3.90;;
19836;SDS011;10079;55.740;37.662;2023-02-28T05:28:25;5.63;;;3.43;;
19836;SDS011;10079;55.740;37.662;2023-02-28T05:31:07;6.83;;;3.20;;
19836;SDS011;10079;55.740;37.662;2023-02-28T05:33:47;5.63;;;3.23;;
19836;SDS011;10079;55.740;37.662;2023-02-28T05:36:27;5.30;;;3.43;;
19836;SDS011;10079;55.740;37.662;2023-02-28T05:42:11;8.10;;;3.20;;
19836;SDS011;10079;55.740;37.662;2023-02-28T05:44:52;7.30;;;3.20;;
19836;SDS011;10079;55.740;37.662;2023-02-28T05:47:36;5.50;;;3.17;;
19836;SDS011;10079;55.740;37.662;2023-02-28T05:50:17;3.40;;;2.47;;
19836;SDS011;10079;55.740;37.662;2023-02-28T05:53:01;8.33;;;3.10;;
19836;SDS011;10079;55.740;37.662;2023-02-28T05:55:42;4.27;;;2.60;;
19836;SDS011;10079;55.740;37.662;2023-02-28T05:58:23;5.07;;;2.70;;
19836;SDS011;10079;55.740;37.662;2023-02-28T06:03:59;4.77;;;3.10;;
19836;SDS011;10079;55.740;37.662;2023-02-28T06:06:41;4.73;;;3.00;;
19836;SDS011;10079;55.740;37.662;2023-02-28T06:09:22;5.97;;;3.07;;
19836;SDS011;10079;55.740;37.662;2023-02-28T06:22:35;7.50;;;3.43;;
19836;SDS011;10079;55.740;37.662;2023-02-28T06:25:16;5.83;;;3.10;;
19836;SDS011;10079;55.740;37.662;2023-02-28T06:27:56;4.53;;;3.07;;
19836;SDS011;10079;55.740;37.662;2023-02-28T06:30:38;4.53;;;2.73;;
19836;SDS011;10079;55.740;37.662;2023-02-28T06:33:22;5.53;;;3.20;;
19836;SDS011;10079;55.740;37.662;2023-02-28T06:36:07;4.73;;;3.17;;
19836;SDS011;10079;55.740;37.662;2023-02-28T06:39:00;5.97;;;3.53;;
19836;SDS011;10079;55.740;37.662;2023-02-28T06:41:44;4.17;;;2.90;;
19836;SDS011;10079;55.740;37.662;2023-02-28T06:55:13;6.63;;;3.97;;
19836;SDS011;10079;55.740;37.662;2023-02-28T06:57:57;8.43;;;3.87;;
19836;SDS011;10079;55.740;37.662;2023-02-28T07:00:42;5.60;;;3.03;;
19836;SDS011;10079;55.740;37.662;2023-02-28T07:03:22;7.83;;;3.60;;
19836;SDS011;10079;55.740;37.662;2023-02-28T07:06:02;5.13;;;3.20;;
19836;SDS011;10079;55.740;37.662;2023-02-28T07:08:57;6.00;;;3.47;;
19836;SDS011;10079;55.740;37.662;2023-02-28T07:11:37;6.07;;;2.97;;
19836;SDS011;10079;55.740;37.662;2023-02-28T07:14:18;5.87;;;3.37;;
19836;SDS011;10079;55.740;37.662;2023-02-28T07:17:02;6.67;;;3.50;;
19836;SDS011;10079;55.740;37.662;2023-02-28T07:19:46;5.67;;;3.80;;
19836;SDS011;10079;55.740;37.662;2023-02-28T07:22:30;6.20;;;3.40;;
19836;SDS011;10079;55.740;37.662;2023-02-28T07:25:15;6.37;;;3.17;;
19836;SDS011;10079;55.740;37.662;2023-02-28T07:27:59;5.63;;;3.53;;
19836;SDS011;10079;55.740;37.662;2023-02-28T07:30:43;6.00;;;2.90;;
19836;SDS011;10079;55.740;37.662;2023-02-28T07:33:27;6.00;;;3.83;;
19836;SDS011;10079;55.740;37.662;2023-02-28T07:36:13;8.80;;;3.47;;
19836;SDS011;10079;55.740;37.662;2023-02-28T07:38:52;5.83;;;3.17;;
19836;SDS011;10079;55.740;37.662;2023-02-28T07:41:36;5.63;;;3.60;;
19836;SDS011;10079;55.740;37.662;2023-02-28T07:44:17;5.83;;;3.40;;
19836;SDS011;10079;55.740;37.662;2023-02-28T07:47:01;7.77;;;3.93;;
19836;SDS011;10079;55.740;37.662;2023-02-28T07:49:45;7.63;;;3.60;;
19836;SDS011;10079;55.740;37.662;2023-02-28T07:52:36;7.93;;;3.33;;
19836;SDS011;10079;55.740;37.662;2023-02-28T07:55:19;6.20;;;3.87;;
19836;SDS011;10079;55.740;37.662;2023-02-28T07:57:59;5.53;;;3.10;;
19836;SDS011;10079;55.740;37.662;2023-02-28T08:11:17;6.40;;;4.27;;
19836;SDS011;10079;55.740;37.662;2023-02-28T08:13:58;6.83;;;3.73;;
19836;SDS011;10079;55.740;37.662;2023-02-28T08:16:39;11.03;;;4.27;;
19836;SDS011;10079;55.740;37.662;2023-02-28T08:19:20;4.27;;;2.90;;
19836;SDS011;10079;55.740;37.662;2023-02-28T08:22:01;6.90;;;3.70;;
19836;SDS011;10079;55.740;37.662;2023-02-28T08:24:42;5.60;;;2.93;;
19836;SDS011;10079;55.740;37.662;2023-02-28T08:27:26;6.53;;;3.20;;
19836;SDS011;10079;55.740;37.662;2023-02-28T08:30:07;5.10;;;3.53;;
19836;SDS011;10079;55.740;37.662;2023-02-28T08:32:49;6.30;;;3.53;;
19836;SDS011;10079;55.740;37.662;2023-02-28T08:35:30;6.30;;;3.43;;
19836;SDS011;10079;55.740;37.662;2023-02-28T08:38:11;5.37;;;3.00;;
19836;SDS011;10079;55.740;37.662;2023-02-28T08:40:57;7.23;;;3.93;;
19836;SDS011;10079;55.740;37.662;2023-02-28T08:43:37;5.90;;;3.67;;
19836;SDS011;10079;55.740;37.662;2023-02-28T08:46:22;5.50;;;3.40;;
19836;SDS011;10079;55.740;37.662;2023-02-28T08:49:02;6.40;;;3.97;;
19836;SDS011;10079;55.740;37.662;2023-02-28T08:51:43;6.90;;;4.10;;
19836;SDS011;10079;55.740;37.662;2023-02-28T08:54:24;5.13;;;3.37;;
19836;SDS011;10079;55.740;37.662;2023-02-28T08:57:05;6.80;;;3.97;;
19836;SDS011;10079;55.740;37.662;2023-02-28T08:59:46;6.67;;;2.90;;
19836;SDS011;10079;55.740;37.662;2023-02-28T09:02:26;5.63;;;3.00;;
19836;SDS011;10079;55.740;37.662;2023-02-28T09:05:08;5.13;;;2.80;;
19836;SDS011;10079;55.740;37.662;2023-02-28T09:07:49;4.10;;;3.13;;
19836;SDS011;10079;55.740;37.662;2023-02-28T09:10:30;5.87;;;3.20;;
19836;SDS011;10079;55.740;37.662;2023-02-28T09:13:11;6.30;;;2.77;;
19836;SDS011;10079;55.740;37.662;2023-02-28T09:15:53;6.43;;;3.00;;
19836;SDS011;10079;55.740;37.662;2023-02-28T09:18:34;5.97;;;2.70;;
19836;SDS011;10079;55.740;37.662;2023-02-28T09:21:18;4.87;;;3.30;;
19836;SDS011;10079;55.740;37.662;2023-02-28T09:24:07;5.63;;;2.87;;
19836;SDS011;10079;55.740;37.662;2023-02-28T09:26:57;5.23;;;2.70;;
19836;SDS011;10079;55.740;37.662;2023-02-28T09:50:47;4.77;;;2.73;;
19836;SDS011;10079;55.740;37.662;2023-02-28T10:15:02;4.40;;;2.63;;
19836;SDS011;10079;55.740;37.662;2023-02-28T10:17:47;5.37;;;2.80;;
19836;SDS011;10079;55.740;37.662;2023-02-28T10:20:27;4.53;;;2.90;;
19836;SDS011;10079;55.740;37.662;2023-02-28T10:23:20;4.83;;;3.10;;
19836;SDS011;10079;55.740;37.662;2023-02-28T10:26:01;5.00;;;2.50;;
19836;SDS011;10079;55.740;37.662;2023-02-28T10:28:50;4.80;;;2.50;;
19836;SDS011;10079;55.740;37.662;2023-02-28T10:31:31;4.43;;;2.33;;
19836;SDS011;10079;55.740;37.662;2023-02-28T10:34:22;4.73;;;2.47;;
19836;SDS011;10079;55.740;37.662;2023-02-28T10:37:03;5.57;;;2.90;;
19836;SDS011;10079;55.740;37.662;2023-02-28T10:39:46;5.97;;;3.10;;
19836;SDS011;10079;55.740;37.662;2023-02-28T10:42:28;3.73;;;2.80;;
19836;SDS011;10079;55.740;37.662;2023-02-28T10:45:10;4.17;;;2.83;;
19836;SDS011;10079;55.740;37.662;2023-02-28T10:47:57;4.60;;;2.87;;
19836;SDS011;10079;55.740;37.662;2023-02-28T10:50:43;3.80;;;2.70;;
19836;SDS011;10079;55.740;37.662;2023-02-28T10:53:54;4.70;;;2.70;;
19836;SDS011;10079;55.740;37.662;2023-02-28T10:56:34;6.80;;;3.30;;
19836;SDS011;10079;55.740;37.662;2023-02-28T10:59:25;6.10;;;3.10;;
19836;SDS011;10079;55.740;37.662;2023-02-28T11:08:20;7.13;;;3.37;;
19836;SDS011;10079;55.740;37.662;2023-02-28T11:11:05;5.47;;;3.33;;
19836;SDS011;10079;55.740;37.662;2023-02-28T11:13:46;4.57;;;2.83;;
19836;SDS011;10079;55.740;37.662;2023-02-28T11:16:31;5.57;;;2.83;;
19836;SDS011;10079;55.740;37.662;2023-02-28T11:19:24;5.37;;;3.30;;
19836;SDS011;10079;55.740;37.662;2023-02-28T11:22:08;5.67;;;3.00;;
19836;SDS011;10079;55.740;37.662;2023-02-28T11:24:50;6.10;;;3.20;;
19836;SDS011;10079;55.740;37.662;2023-02-28T11:27:46;6.37;;;3.30;;
19836;SDS011;10079;55.740;37.662;2023-02-28T11:30:31;5.27;;;3.33;;
19836;SDS011;10079;55.740;37.662;2023-02-28T11:33:29;6.60;;;3.47;;
19836;SDS011;10079;55.740;37.662;2023-02-28T11:36:12;6.70;;;3.63;;
19836;SDS011;10079;55.740;37.662;2023-02-28T11:38:54;5.93;;;3.17;;
19836;SDS011;10079;55.740;37.662;2023-02-28T11:47:31;5.77;;;3.37;;
19836;SDS011;10079;55.740;37.662;2023-02-28T11:50:35;5.50;;;3.50;;
19836;SDS011;10079;55.740;37.662;2023-02-28T11:53:36;5.13;;;3.20;;
19836;SDS011;10079;55.740;37.662;2023-02-28T12:07:18;5.90;;;3.90;;
19836;SDS011;10079;55.740;37.662;2023-02-28T12:31:20;6.63;;;3.50;;
19836;SDS011;10079;55.740;37.662;2023-02-28T12:44:49;6.27;;;3.77;;
19836;SDS011;10079;55.740;37.662;2023-02-28T12:47:27;5.30;;;3.77;;
19836;SDS011;10079;55.740;37.662;2023-02-28T12:50:10;5.67;;;3.43;;
19836;SDS011;10079;55.740;37.662;2023-02-28T12:53:01;5.03;;;3.10;;
19836;SDS011;10079;55.740;37.662;2023-02-28T12:55:49;5.87;;;3.37;;
19836;SDS011;10079;55.740;37.662;2023-02-28T12:58:46;4.40;;;2.80;;
19836;SDS011;10079;55.740;37.662;2023-02-28T13:01:47;5.73;;;3.40;;
19836;SDS011;10079;55.740;37.662;2023-02-28T13:04:40;4.83;;;3.27;;
19836;SDS011;10079;55.740;37.662;2023-02-28T13:17:56;4.97;;;3.27;;
19836;SDS011;10079;55.740;37.662;2023-02-28T13:20:37;6.27;;;2.93;;
19836;SDS011;10079;55.740;37.662;2023-02-28T13:27:10;6.20;;;3.33;;
19836;SDS011;10079;55.740;37.662;2023-02-28T13:29:28;6.33;;;3.13;;
19836;SDS011;10079;55.740;37.662;2023-02-28T13:35:12;5.30;;;3.20;;
19836;SDS011;10079;55.740;37.662;2023-02-28T13:37:54;5.10;;;2.97;;
19836;SDS011;10079;55.740;37.662;2023-02-28T13:40:33;5.67;;;3.20;;
19836;SDS011;10079;55.740;37.662;2023-02-28T13:43:16;5.17;;;2.80;;
19836;SDS011;10079;55.740;37.662;2023-02-28T13:48:44;4.33;;;2.70;;
19836;SDS011;10079;55.740;37.662;2023-02-28T13:54:24;5.07;;;2.80;;
19836;SDS011;10079;55.740;37.662;2023-02-28T13:57:12;4.97;;;2.90;;
19836;SDS011;10079;55.740;37.662;2023-02-28T14:00:01;4.63;;;3.03;;
19836;SDS011;10079;55.740;37.662;2023-02-28T14:11:42;5.97;;;3.27;;
19836;SDS011;10079;55.740;37.662;2023-02-28T14:17:24;4.80;;;2.60;;
19836;SDS011;10079;55.740;37.662;2023-02-28T14:20:13;5.03;;;3.30;;
19836;SDS011;10079;55.740;37.662;2023-02-28T14:22:54;4.27;;;3.03;;
19836;SDS011;10079;55.740;37.662;2023-02-28T14:25:40;4.53;;;2.87;;
19836;SDS011;10079;55.740;37.662;2023-02-28T14:28:42;4.43;;;2.80;;
19836;SDS011;10079;55.740;37.662;2023-02-28T14:31:37;5.37;;;3.00;;
19836;SDS011;10079;55.740;37.662;2023-02-28T14:48:04;4.47;;;3.07;;
19836;SDS011;10079;55.740;37.662;2023-02-28T14:50:56;3.97;;;3.03;;
19836;SDS011;10079;55.740;37.662;2023-02-28T14:53:49;4.90;;;2.97;;
19836;SDS011;10079;55.740;37.662;2023-02-28T14:56:35;4.83;;;3.17;;
19836;SDS011;10079;55.740;37.662;2023-02-28T14:59:27;3.60;;;2.53;;
19836;SDS011;10079;55.740;37.662;2023-02-28T15:02:14;4.77;;;2.83;;
19836;SDS011;10079;55.740;37.662;2023-02-28T15:04:54;4.23;;;2.97;;
19836;SDS011;10079;55.740;37.662;2023-02-28T15:07:39;3.53;;;2.50;;
19836;SDS011;10079;55.740;37.662;2023-02-28T15:10:33;5.03;;;3.10;;
19836;SDS011;10079;55.740;37.662;2023-02-28T15:13:19;6.10;;;3.27;;
19836;SDS011;10079;55.740;37.662;2023-02-28T15:16:01;4.27;;;3.00;;
19836;SDS011;10079;55.740;37.662;2023-02-28T15:18:56;6.27;;;3.90;;
19836;SDS011;10079;55.740;37.662;2023-02-28T15:21:38;4.20;;;3.13;;
19836;SDS011;10079;55.740;37.662;2023-02-28T15:24:41;5.27;;;3.53;;
19836;SDS011;10079;55.740;37.662;2023-02-28T15:27:24;6.07;;;3.33;;
19836;SDS011;10079;55.740;37.662;2023-02-28T15:30:05;3.83;;;3.00;;
19836;SDS011;10079;55.740;37.662;2023-02-28T15:43:30;4.60;;;3.17;;
19836;SDS011;10079;55.740;37.662;2023-02-28T15:46:19;4.30;;;3.13;;
19836;SDS011;10079;55.740;37.662;2023-02-28T15:48:59;3.87;;;2.67;;
19836;SDS011;10079;55.740;37.662;2023-02-28T15:51:40;4.90;;;2.87;;
19836;SDS011;10079;55.740;37.662;2023-02-28T15:54:24;5.07;;;2.70;;
19836;SDS011;10079;55.740;37.662;2023-02-28T15:57:05;4.17;;;2.83;;
19836;SDS011;10079;55.740;37.662;2023-02-28T16:10:23;4.43;;;3.20;;
19836;SDS011;10079;55.740;37.662;2023-02-28T16:13:08;4.67;;;3.17;;
19836;SDS011;10079;55.740;37.662;2023-02-28T16:16:01;4.53;;;2.80;;
19836;SDS011;10079;55.740;37.662;2023-02-28T16:18:45;5.37;;;2.90;;
19836;SDS011;10079;55.740;37.662;2023-02-28T16:21:26;3.93;;;3.00;;
19836;SDS011;10079;55.740;37.662;2023-02-28T16:24:07;4.07;;;2.67;;
19836;SDS011;10079;55.740;37.662;2023-02-28T16:26:48;6.27;;;3.20;;
19836;SDS011;10079;55.740;37.662;2023-02-28T16:29:29;5.10;;;3.33;;
19836;SDS011;10079;55.740;37.662;2023-02-28T16:32:14;4.20;;;3.00;;
19836;SDS011;10079;55.740;37.662;2023-02-28T16:34:59;4.97;;;2.90;;
19836;SDS011;10079;55.740;37.662;2023-02-28T16:37:41;5.07;;;3.07;;
19836;SDS011;10079;55.740;37.662;2023-02-28T16:40:26;3.50;;;2.63;;
19836;SDS011;10079;55.740;37.662;2023-02-28T16:43:07;3.37;;;2.63;;
19836;SDS011;10079;55.740;37.662;2023-02-28T16:45:49;4.57;;;2.63;;
19836;SDS011;10079;55.740;37.662;2023-02-28T16:48:33;5.50;;;3.27;;
19836;SDS011;10079;55.740;37.662;2023-02-28T16:51:22;4.70;;;3.00;;
19836;SDS011;10079;55.740;37.662;2023-02-28T16:54:04;5.17;;;2.87;;
19836;SDS011;10079;55.740;37.662;2023-02-28T16:56:48;7.17;;;3.73;;
19836;SDS011;10079;55.740;37.662;2023-02-28T16:59:29;4.03;;;2.30;;
19836;SDS011;10079;55.740;37.662;2023-02-28T17:02:12;4.37;;;2.40;;
19836;SDS011;10079;55.740;37.662;2023-02-28T17:04:52;2.90;;;2.33;;
19836;SDS011;10079;55.740;37.662;2023-02-28T17:07:36;4.47;;;2.70;;
19836;SDS011;10079;55.740;37.662;2023-02-28T17:10:22;5.57;;;2.57;;
19836;SDS011;10079;55.740;37.662;2023-02-28T17:13:13;4.27;;;2.90;;
19836;SDS011;10079;55.740;37.662;2023-02-28T17:16:11;5.10;;;4.10;;
19836;SDS011;10079;55.740;37.662;2023-02-28T17:18:54;8.97;;;3.90;;
19836;SDS011;10079;55.740;37.662;2023-02-28T17:42:56;7.70;;;3.13;;
19836;SDS011;10079;55.740;37.662;2023-02-28T17:45:49;4.23;;;2.87;;
19836;SDS011;10079;55.740;37.662;2023-02-28T17:48:33;3.50;;;2.57;;
19836;SDS011;10079;55.740;37.662;2023-02-28T17:51:18;4.13;;;2.93;;
19836;SDS011;10079;55.740;37.662;2023-02-28T17:53:59;2.90;;;1.50;;
19836;SDS011;10079;55.740;37.662;2023-02-28T17:56:45;2.50;;;1.30;;
19836;SDS011;10079;55.740;37.662;2023-02-28T17:59:30;2.93;;;1.10;;
19836;SDS011;10079;55.740;37.662;2023-02-28T18:02:12;3.03;;;1.33;;
19836;SDS011;10079;55.740;37.662;2023-02-28T18:04:53;1.93;;;1.10;;
19836;SDS011;10079;55.740;37.662;2023-02-28T18:07:34;2.27;;;1.00;;
19836;SDS011;10079;55.740;37.662;2023-02-28T18:10:15;2.03;;;0.90;;
19836;SDS011;10079;55.740;37.662;2023-02-28T18:12:58;2.70;;;1.10;;
19836;SDS011;10079;55.740;37.662;2023-02-28T18:15:39;2.43;;;0.90;;
19836;SDS011;10079;55.740;37.662;2023-02-28T18:18:24;2.43;;;0.90;;
19836;SDS011;10079;55.740;37.662;2023-02-28T18:21:09;2.70;;;0.97;;
19836;SDS011;10079;55.740;37.662;2023-02-28T18:23:52;3.00;;;1.00;;
19836;SDS011;10079;55.740;37.662;2023-02-28T18:26:33;4.83;;;1.30;;
19836;SDS011;10079;55.740;37.662;2023-02-28T18:29:16;1.53;;;0.90;;
19836;SDS011;10079;55.740;37.662;2023-02-28T18:32:00;3.17;;;1.20;;
19836;SDS011;10079;55.740;37.662;2023-02-28T18:34:41;5.43;;;1.10;;
19836;SDS011;10079;55.740;37.662;2023-02-28T18:37:21;1.77;;;0.67;;
19836;SDS011;10079;55.740;37.662;2023-02-28T18:40:11;5.47;;;0.80;;
19836;SDS011;10079;55.740;37.662;2023-02-28T18:42:56;2.33;;;0.97;;
19836;SDS011;10079;55.740;37.662;2023-02-28T18:45:49;3.03;;;1.10;;
19836;SDS011;10079;55.740;37.662;2023-02-28T18:48:29;2.40;;;1.37;;
19836;SDS011;10079;55.740;37.662;2023-02-28T18:51:11;3.23;;;1.27;;
19836;SDS011;10079;55.740;37.662;2023-02-28T18:53:54;3.20;;;1.10;;
19836;SDS011;10079;55.740;37.662;2023-02-28T18:56:36;3.17;;;1.00;;
19836;SDS011;10079;55.740;37.662;2023-02-28T18:59:20;2.30;;;1.10;;
19836;SDS011;10079;55.740;37.662;2023-02-28T19:02:00;1.83;;;1.00;;
19836;SDS011;10079;55.740;37.662;2023-02-28T19:04:41;3.73;;;1.20;;
19836;SDS011;10079;55.740;37.662;2023-02-28T19:07:22;2.60;;;1.00;;
19836;SDS011;10079;55.740;37.662;2023-02-28T19:10:06;2.63;;;0.97;;
19836;SDS011;10079;55.740;37.662;2023-02-28T19:12:48;3.03;;;1.10;;
19836;SDS011;10079;55.740;37.662;2023-02-28T19:15:29;2.27;;;1.07;;
19836;SDS011;10079;55.740;37.662;2023-02-28T19:18:10;4.50;;;1.40;;
19836;SDS011;10079;55.740;37.662;2023-02-28T19:20:50;3.40;;;1.23;;
19836;SDS011;10079;55.740;37.662;2023-02-28T19:23:31;3.80;;;1.47;;
19836;SDS011;10079;55.740;37.662;2023-02-28T19:26:16;2.67;;;0.90;;
19836;SDS011;10079;55.740;37.662;2023-02-28T19:28:54;6.17;;;1.43;;
19836;SDS011;10079;55.740;37.662;2023-02-28T19:31:35;2.33;;;1.30;;
19836;SDS011;10079;55.740;37.662;2023-02-28T19:34:16;4.10;;;1.93;;
19836;SDS011;10079;55.740;37.662;2023-02-28T19:36:57;3.00;;;1.30;;
19836;SDS011;10079;55.740;37.662;2023-02-28T19:39:37;3.33;;;1.70;;
19836;SDS011;10079;55.740;37.662;2023-02-28T19:42:18;2.60;;;1.20;;
19836;SDS011;10079;55.740;37.662;2023-02-28T19:44:59;3.43;;;1.63;;
19836;SDS011;10079;55.740;37.662;2023-02-28T19:47:40;2.07;;;1.10;;
19836;SDS011;10079;55.740;37.662;2023-02-28T19:50:21;2.63;;;0.90;;
19836;SDS011;10079;55.740;37.662;2023-02-28T19:53:02;3.57;;;1.17;;
19836;SDS011;10079;55.740;37.662;2023-02-28T19:55:45;2.93;;;1.17;;
19836;SDS011;10079;55.740;37.662;2023-02-28T19:58:25;3.23;;;0.93;;
19836;SDS011;10079;55.740;37.662;2023-02-28T20:01:06;2.07;;;1.10;;
19836;SDS011;10079;55.740;37.662;2023-02-28T20:03:48;2.60;;;1.30;;
19836;SDS011;10079;55.740;37.662;2023-02-28T20:06:30;2.47;;;1.10;;
19836;SDS011;10079;55.740;37.662;2023-02-28T20:09:13;4.40;;;1.33;;
19836;SDS011;10079;55.740;37.662;2023-02-28T20:11:56;3.30;;;1.10;;
19836;SDS011;10079;55.740;37.662;2023-02-28T20:14:39;4.80;;;1.20;;
19836;SDS011;10079;55.740;37.662;2023-02-28T20:17:20;4.97;;;0.83;;
19836;SDS011;10079;55.740;37.662;2023-02-28T20:20:01;3.50;;;0.77;;
19836;SDS011;10079;55.740;37.662;2023-02-28T20:22:44;2.10;;;0.93;;
19836;SDS011;10079;55.740;37.662;2023-02-28T20:25:26;1.57;;;1.20;;
19836;SDS011;10079;55.740;37.662;2023-02-28T20:28:08;2.17;;;0.83;;
19836;SDS011;10079;55.740;37.662;2023-02-28T20:30:49;3.97;;;1.10;;
19836;SDS011;10079;55.740;37.662;2023-02-28T20:33:30;2.63;;;0.97;;
19836;SDS011;10079;55.740;37.662;2023-02-28T20:36:11;5.33;;;0.90;;
19836;SDS011;10079;55.740;37.662;2023-02-28T20:38:51;2.63;;;0.90;;
19836;SDS011;10079;55.740;37.662;2023-02-28T20:41:40;3.37;;;0.87;;
19836;SDS011;10079;55.740;37.662;2023-02-28T20:44:22;1.27;;;0.60;;
19836;SDS011;10079;55.740;37.662;2023-02-28T20:47:04;1.50;;;0.93;;
19836;SDS011;10079;55.740;37.662;2023-02-28T20:49:45;2.60;;;0.73;;
19836;SDS011;10079;55.740;37.662;2023-02-28T20:52:27;2.00;;;0.73;;
19836;SDS011;10079;55.740;37.662;2023-02-28T20:55:20;1.23;;;0.70;;
19836;SDS011;10079;55.740;37.662;2023-02-28T20:58:01;1.80;;;0.70;;
19836;SDS011;10079;55.740;37.662;2023-02-28T21:00:41;3.90;;;0.67;;
19836;SDS011;10079;55.740;37.662;2023-02-28T21:03:22;3.50;;;0.80;;
19836;SDS011;10079;55.740;37.662;2023-02-28T21:06:06;2.87;;;0.90;;
19836;SDS011;10079;55.740;37.662;2023-02-28T21:08:47;3.97;;;1.00;;
19836;SDS011;10079;55.740;37.662;2023-02-28T21:11:29;2.27;;;0.77;;
19836;SDS011;10079;55.740;37.662;2023-02-28T21:14:17;1.73;;;0.60;;
19836;SDS011;10079;55.740;37.662;2023-02-28T21:16:58;2.40;;;0.80;;
19836;SDS011;10079;55.740;37.662;2023-02-28T21:19:39;2.10;;;0.70;;
19836;SDS011;10079;55.740;37.662;2023-02-28T21:22:25;2.00;;;0.60;;
19836;SDS011;10079;55.740;37.662;2023-02-28T21:25:07;2.47;;;0.60;;
19836;SDS011;10079;55.740;37.662;2023-02-28T21:27:49;3.57;;;1.20;;
19836;SDS011;10079;55.740;37.662;2023-02-28T21:30:30;2.00;;;0.70;;
19836;SDS011;10079;55.740;37.662;2023-02-28T21:33:07;2.23;;;0.70;;
19836;SDS011;10079;55.740;37.662;2023-02-28T21:35:47;2.47;;;0.93;;
19836;SDS011;10079;55.740;37.662;2023-02-28T21:38:28;1.80;;;0.60;;
19836;SDS011;10079;55.740;37.662;2023-02-28T21:41:10;0.83;;;0.63;;
19836;SDS011;10079;55.740;37.662;2023-02-28T21:43:51;2.03;;;0.57;;
19836;SDS011;10079;55.740;37.662;2023-02-28T21:46:32;2.23;;;0.70;;